Time;durP1;ratioP1;P1;durP2;ratioP2;P2;SDS_P1;SDS_P2;PMS_P1;PMS_P2;Temp;Humidity;BMP_temperature;BMP_pressure;BME280_temperature;BME280_humidity;BME280_pressure;Samples;Min_cycle;Max_cycle;Signal;HPM_P1;HPM_P2
2020/12/08 00:00:42;;;;;;;39.13;15.58;;;;;;;-1.30;76.51;98454.10;2139550;83;21285;-61
2020/12/08 00:03:43;;;;;;;39.25;15.30;;;;;;;-1.31;76.40;98448.09;2139403;83;21567;-61
2020/12/08 00:06:44;;;;;;;37.88;14.70;;;;;;;-1.30;76.33;98445.09;2139381;83;21127;-61
2020/12/08 00:09:46;;;;;;;34.73;13.60;;;;;;;-1.32;76.37;98456.70;2139721;83;21280;-61
2020/12/08 00:12:47;;;;;;;36.70;14.70;;;;;;;-1.32;76.52;98448.98;2140033;83;21280;-60
2020/12/08 00:15:48;;;;;;;40.65;15.50;;;;;;;-1.31;76.52;98460.12;2134100;83;21191;-61
2020/12/08 00:18:50;;;;;;;35.92;15.30;;;;;;;-1.30;76.53;98472.12;2122732;84;21621;-61
2020/12/08 00:21:51;;;;;;;38.70;14.30;;;;;;;-1.27;76.43;98458.73;2123082;84;21147;-61
2020/12/08 00:24:52;;;;;;;35.73;14.00;;;;;;;-1.27;76.32;98459.19;2122869;83;21301;-61
2020/12/08 00:27:53;;;;;;;36.70;14.20;;;;;;;-1.29;76.40;98455.81;2122557;83;21297;-61
2020/12/08 00:30:54;;;;;;;40.10;14.73;;;;;;;-1.29;76.45;98446.35;2122626;83;21281;-60
2020/12/08 00:33:55;;;;;;;33.45;13.98;;;;;;;-1.28;76.62;98451.92;2122670;83;21686;-61
2020/12/08 00:36:57;;;;;;;37.08;13.95;;;;;;;-1.29;76.67;98450.21;2122725;84;21167;-61
2020/12/08 00:39:58;;;;;;;35.25;13.40;;;;;;;-1.32;76.45;98455.42;2122718;84;21294;-61
2020/12/08 00:42:59;;;;;;;34.80;12.70;;;;;;;-1.38;76.41;98456.80;2122912;84;21322;-61
2020/12/08 00:46:00;;;;;;;35.25;13.75;;;;;;;-1.47;76.42;98456.53;2122684;84;21757;-60
2020/12/08 00:49:01;;;;;;;34.98;13.15;;;;;;;-1.51;76.70;98452.31;2122748;84;21293;-61
2020/12/08 00:52:02;;;;;;;35.52;13.18;;;;;;;-1.52;77.09;98465.20;2123110;83;21560;-61
2020/12/08 00:55:04;;;;;;;40.73;14.47;;;;;;;-1.51;77.14;98464.34;2122836;84;21290;-61
2020/12/08 00:58:06;;;;;;;36.40;14.05;;;;;;;-1.48;77.32;98469.01;2122960;84;21293;-60
2020/12/08 01:01:07;;;;;;;36.15;13.68;;;;;;;-1.48;77.14;98465.15;2122887;84;21180;-61
2020/12/08 01:04:08;;;;;;;34.03;13.68;;;;;;;-1.50;77.32;98460.91;2122616;83;21907;-61
2020/12/08 01:07:10;;;;;;;34.27;13.43;;;;;;;-1.51;77.64;98464.34;2123300;84;21297;-61
2020/12/08 01:10:11;;;;;;;37.13;13.43;;;;;;;-1.52;77.85;98464.79;2122681;84;21285;-61
2020/12/08 01:13:12;;;;;;;35.38;12.45;;;;;;;-1.50;77.78;98462.19;2122518;84;21301;-61
2020/12/08 01:16:14;;;;;;;35.78;14.28;;;;;;;-1.54;77.92;98456.23;2128970;83;21741;-61
2020/12/08 01:19:15;;;;;;;39.33;13.10;;;;;;;-1.55;77.68;98457.13;2139410;83;21150;-60
2020/12/08 01:22:17;;;;;;;38.58;14.10;;;;;;;-1.57;78.06;98457.58;2139467;83;21280;-61
2020/12/08 01:25:18;;;;;;;37.45;13.78;;;;;;;-1.62;77.95;98460.69;2139460;83;21313;-61
2020/12/08 01:28:19;;;;;;;35.88;13.03;;;;;;;-1.63;77.80;98462.39;2139313;83;21147;-61
2020/12/08 01:31:20;;;;;;;35.40;13.60;;;;;;;-1.62;78.08;98464.09;2139481;83;21147;-62
2020/12/08 01:34:22;;;;;;;34.20;13.00;;;;;;;-1.62;78.52;98461.98;2139315;83;21602;-61
2020/12/08 01:37:23;;;;;;;35.50;12.95;;;;;;;-1.66;78.13;98455.19;2139467;83;21772;-61
2020/12/08 01:40:25;;;;;;;35.43;13.45;;;;;;;-1.68;78.07;98455.63;2139856;83;21289;-61
2020/12/08 01:43:26;;;;;;;35.48;13.60;;;;;;;-1.70;78.16;98459.52;2139414;83;21752;-60
2020/12/08 01:46:28;;;;;;;33.33;12.33;;;;;;;-1.73;78.12;98457.00;2140336;83;21289;-61
2020/12/08 01:49:29;;;;;;;33.60;13.15;;;;;;;-1.75;78.16;98454.46;2139471;83;21201;-61
2020/12/08 01:52:30;;;;;;;35.88;13.68;;;;;;;-1.73;78.42;98462.59;2139330;83;21158;-61
2020/12/08 01:55:31;;;;;;;36.40;13.30;;;;;;;-1.72;78.45;98458.70;2139402;83;21581;-61
2020/12/08 01:58:32;;;;;;;33.48;13.00;;;;;;;-1.71;78.56;98469.41;2139445;83;21305;-61
2020/12/08 02:01:33;;;;;;;36.45;13.35;;;;;;;-1.74;78.52;98466.88;2139730;83;21289;-61
2020/12/08 02:04:35;;;;;;;33.70;12.75;;;;;;;-1.75;78.31;98461.34;2139755;83;21301;-61
2020/12/08 02:07:36;;;;;;;35.52;12.53;;;;;;;-1.77;78.21;98464.36;2139322;83;21594;-61
2020/12/08 02:10:37;;;;;;;35.90;12.68;;;;;;;-1.73;78.50;98471.15;2139691;83;21296;-60
2020/12/08 02:13:39;;;;;;;32.73;12.85;;;;;;;-1.71;78.62;98467.27;2139289;83;21194;-61
2020/12/08 02:16:40;;;;;;;33.18;13.25;;;;;;;-1.75;78.79;98467.31;2132750;83;21182;-61
2020/12/08 02:19:41;;;;;;;32.75;12.30;;;;;;;-1.79;78.82;98463.55;2122722;84;21306;-60
2020/12/08 02:22:43;;;;;;;33.33;11.78;;;;;;;-1.84;78.94;98466.62;2122576;84;21568;-61
2020/12/08 02:25:44;;;;;;;29.15;11.63;;;;;;;-1.85;78.47;98468.35;2122561;84;21631;-61
2020/12/08 02:28:45;;;;;;;33.23;12.95;;;;;;;-1.88;78.58;98467.53;2122994;83;21279;-60
2020/12/08 02:31:46;;;;;;;29.32;10.55;;;;;;;-1.92;78.73;98453.45;2122993;84;21285;-62
2020/12/08 02:34:47;;;;;;;31.12;11.18;;;;;;;-1.96;78.63;98474.94;2122574;84;21289;-61
2020/12/08 02:37:48;;;;;;;32.10;11.73;;;;;;;-1.99;78.77;98462.14;2122612;84;21186;-61
2020/12/08 02:40:52;;;;;;;36.00;12.23;;;;;;;-2.01;78.72;98456.60;2122529;84;21104;-60
2020/12/08 02:43:53;;;;;;;31.27;11.43;;;;;;;-1.97;78.86;98459.13;2122568;84;21304;-61
2020/12/08 02:46:54;;;;;;;31.45;12.30;;;;;;;-1.97;78.90;98462.11;2122478;84;21171;-61
2020/12/08 02:49:55;;;;;;;33.18;11.57;;;;;;;-1.97;78.94;98468.54;2122540;84;21116;-61
2020/12/08 02:52:56;;;;;;;31.42;12.15;;;;;;;-1.97;79.33;98462.11;2122829;84;21131;-61
2020/12/08 02:55:58;;;;;;;33.75;12.55;;;;;;;-1.99;79.22;98476.28;2122918;84;21273;-61
2020/12/08 02:58:59;;;;;;;30.40;11.55;;;;;;;-2.00;79.41;98475.02;2122592;84;21776;-61
2020/12/08 03:02:00;;;;;;;33.63;12.73;;;;;;;-1.98;79.47;98469.44;2122929;84;21289;-61
2020/12/08 03:05:02;;;;;;;33.05;12.80;;;;;;;-1.94;79.41;98473.20;2122684;84;21725;-61
2020/12/08 03:08:03;;;;;;;34.00;12.63;;;;;;;-1.91;79.67;98472.31;2122746;84;21286;-60
2020/12/08 03:11:04;;;;;;;32.67;11.22;;;;;;;-1.93;79.50;98471.48;2122999;84;21669;-60
2020/12/08 03:14:05;;;;;;;34.05;12.58;;;;;;;-1.96;79.31;98462.09;2122588;84;21613;-61
2020/12/08 03:17:06;;;;;;;31.42;12.28;;;;;;;-1.96;79.62;98469.80;2102308;84;21591;-60
2020/12/08 03:20:08;;;;;;;33.50;11.60;;;;;;;-1.98;79.41;98465.12;2122566;84;21282;-61
2020/12/08 03:23:09;;;;;;;32.75;12.15;;;;;;;-1.95;79.44;98464.23;2122431;83;21178;-61
2020/12/08 03:26:10;;;;;;;33.65;11.33;;;;;;;-1.97;79.47;98468.13;2122544;84;21159;-61
2020/12/08 03:29:11;;;;;;;33.38;10.93;;;;;;;-1.95;79.42;98461.67;2102635;84;21261;-61
2020/12/08 03:32:15;;;;;;;32.30;12.28;;;;;;;-1.98;79.22;98463.01;2122798;84;21289;-61
2020/12/08 03:35:16;;;;;;;32.13;12.73;;;;;;;-1.98;79.08;98468.15;2122668;84;21281;-61
2020/12/08 03:38:17;;;;;;;31.50;11.57;;;;;;;-1.94;79.30;98471.05;2122770;84;21761;-61
2020/12/08 03:41:19;;;;;;;31.17;11.45;;;;;;;-1.95;79.16;98474.08;2122776;84;21328;-61
2020/12/08 03:44:20;;;;;;;30.33;12.00;;;;;;;-1.95;79.80;98476.64;2123316;83;21188;-61
2020/12/08 03:47:21;;;;;;;32.38;11.22;;;;;;;-1.94;79.13;98476.20;2122711;84;21130;-61
2020/12/08 03:50:22;;;;;;;31.17;11.25;;;;;;;-1.97;78.84;98468.13;2123051;84;21290;-61
2020/12/08 03:53:23;;;;;;;31.75;10.90;;;;;;;-1.99;79.07;98475.44;2122744;84;21293;-61
2020/12/08 03:56:25;;;;;;;30.35;11.12;;;;;;;-2.01;79.04;98475.47;2122912;84;21575;-61
2020/12/08 03:59:26;;;;;;;29.92;11.03;;;;;;;-2.02;79.06;98475.49;2123270;84;21289;-60
2020/12/08 04:02:28;;;;;;;31.15;11.00;;;;;;;-2.05;79.34;98479.37;2122867;84;21285;-61
2020/12/08 04:05:29;;;;;;;32.33;11.38;;;;;;;-2.06;78.96;98476.41;2122659;84;21748;-61
2020/12/08 04:08:30;;;;;;;31.40;11.38;;;;;;;-2.05;79.25;98480.66;2122874;84;21115;-61
2020/12/08 04:11:32;;;;;;;29.90;11.12;;;;;;;-2.09;79.41;98478.58;2123140;84;21151;-60
2020/12/08 04:14:34;;;;;;;31.20;11.03;;;;;;;-2.09;79.59;98490.15;2122694;84;21278;-61
2020/12/08 04:17:35;;;;;;;35.23;11.22;;;;;;;-2.10;79.25;98488.03;2127970;83;21733;-61
2020/12/08 04:20:36;;;;;;;31.93;11.03;;;;;;;-2.12;79.04;98495.34;2132675;83;21284;-61
2020/12/08 04:23:37;;;;;;;33.25;11.48;;;;;;;-2.10;79.16;98485.45;2132704;83;21285;-60
2020/12/08 04:26:38;;;;;;;32.17;11.78;;;;;;;-2.06;78.94;98491.83;2132665;83;21280;-61
2020/12/08 04:29:39;;;;;;;33.90;11.08;;;;;;;-2.05;78.99;98480.66;2132391;83;21317;-61
2020/12/08 04:32:40;;;;;;;29.67;11.15;;;;;;;-2.04;78.99;98488.38;2132496;83;21760;-61
2020/12/08 04:35:41;;;;;;;31.82;11.50;;;;;;;-2.08;78.81;98477.72;2132418;83;21297;-61
2020/12/08 04:38:42;;;;;;;33.67;11.90;;;;;;;-2.07;78.87;98477.27;2132376;83;21301;-61
2020/12/08 04:41:44;;;;;;;30.92;11.83;;;;;;;-2.06;78.95;98472.11;2132354;83;21313;-62
2020/12/08 04:44:45;;;;;;;31.82;10.38;;;;;;;-2.07;78.90;98473.42;2132471;83;21333;-61
2020/12/08 04:47:46;;;;;;;30.75;10.93;;;;;;;-2.09;78.91;98474.73;2132853;83;21325;-61
2020/12/08 04:50:47;;;;;;;31.48;10.95;;;;;;;-2.12;78.93;98478.64;2132752;83;21285;-61
2020/12/08 04:53:48;;;;;;;30.68;10.65;;;;;;;-2.11;78.91;98490.17;2132597;83;21337;-61
2020/12/08 04:56:49;;;;;;;34.50;11.50;;;;;;;-2.09;78.72;98490.15;2132864;83;21308;-60
2020/12/08 04:59:51;;;;;;;30.90;10.72;;;;;;;-2.06;78.85;98491.83;2132386;83;21285;-61
2020/12/08 05:02:52;;;;;;;30.60;10.70;;;;;;;-2.03;78.64;98486.19;2132468;83;21188;-61
2020/12/08 05:05:53;;;;;;;31.57;10.93;;;;;;;-2.04;78.50;98481.08;2132769;83;21728;-61
2020/12/08 05:08:55;;;;;;;30.77;11.65;;;;;;;-2.06;78.58;98482.39;2132481;83;21313;-61
2020/12/08 05:11:56;;;;;;;33.83;11.78;;;;;;;-2.06;78.69;98479.81;2132542;83;21296;-61
2020/12/08 05:14:57;;;;;;;32.33;11.50;;;;;;;-2.02;78.54;98476.78;2132356;83;21139;-61
2020/12/08 05:18:00;;;;;;;33.08;11.20;;;;;;;-2.04;78.83;98467.81;2126653;83;21179;-61
2020/12/08 05:21:02;;;;;;;30.15;11.28;;;;;;;-2.04;78.87;98479.79;2123053;84;21308;-61
2020/12/08 05:24:03;;;;;;;31.85;11.75;;;;;;;-2.04;78.65;98490.94;2122502;84;21293;-61
2020/12/08 05:27:04;;;;;;;30.10;10.93;;;;;;;-2.05;78.60;98489.23;2122706;84;21285;-61
2020/12/08 05:30:07;;;;;;;33.60;12.18;;;;;;;-2.04;78.28;98499.94;2122959;84;21301;-61
2020/12/08 05:33:08;;;;;;;33.53;10.98;;;;;;;-2.01;78.49;98502.45;2122732;84;21289;-61
2020/12/08 05:36:09;;;;;;;29.65;11.70;;;;;;;-2.02;78.25;98489.63;2122544;84;21804;-61
2020/12/08 05:39:10;;;;;;;32.50;11.65;;;;;;;-2.01;78.44;98496.45;2122502;84;21312;-60
2020/12/08 05:42:11;;;;;;;34.55;12.85;;;;;;;-1.96;78.53;98502.38;2122556;83;21273;-61
2020/12/08 05:45:12;;;;;;;30.55;10.78;;;;;;;-1.89;78.58;98506.55;2122948;84;21134;-61
2020/12/08 05:48:13;;;;;;;29.52;11.43;;;;;;;-1.87;78.04;98507.36;2122658;84;21293;-61
2020/12/08 05:51:15;;;;;;;31.73;11.63;;;;;;;-1.89;78.15;98504.42;2122573;84;21308;-61
2020/12/08 05:54:18;;;;;;;31.45;11.83;;;;;;;-1.87;77.99;98491.94;2123130;84;21350;-61
2020/12/08 05:57:20;;;;;;;29.95;11.20;;;;;;;-1.90;77.85;98497.58;2122823;84;21317;-60
2020/12/08 06:00:21;;;;;;;29.52;11.50;;;;;;;-1.92;78.03;98498.44;2122639;83;21297;-61
2020/12/08 06:03:22;;;;;;;31.50;11.70;;;;;;;-1.90;78.02;98507.41;2122574;83;21273;-61
2020/12/08 06:06:23;;;;;;;30.30;11.30;;;;;;;-1.89;77.88;98510.41;2122785;84;21285;-61
2020/12/08 06:09:24;;;;;;;31.30;11.05;;;;;;;-1.93;77.87;98503.16;2122669;84;21257;-61
2020/12/08 06:12:26;;;;;;;30.05;10.70;;;;;;;-1.96;77.90;98513.95;2122514;84;21305;-61
2020/12/08 06:15:27;;;;;;;30.60;11.00;;;;;;;-1.97;78.00;98512.23;2122637;84;21151;-61
2020/12/08 06:18:28;;;;;;;31.07;10.73;;;;;;;-1.97;78.02;98519.53;2133709;83;21813;-61
2020/12/08 06:21:30;;;;;;;31.50;11.03;;;;;;;-1.98;77.97;98520.40;2139734;83;21159;-61
2020/12/08 06:24:33;;;;;;;32.30;11.83;;;;;;;-1.98;77.90;98525.54;2139526;83;21139;-61
2020/12/08 06:27:34;;;;;;;30.52;10.98;;;;;;;-1.93;78.09;98525.46;2139447;83;21153;-61
2020/12/08 06:30:38;;;;;;;29.40;11.00;;;;;;;-1.90;77.79;98523.29;2139572;83;21689;-61
2020/12/08 06:33:38;;;;;;;29.77;11.12;;;;;;;-1.91;77.94;98522.45;2139420;83;21748;-61
2020/12/08 06:36:41;;;;;;;30.70;11.03;;;;;;;-1.89;77.77;98530.14;2139485;83;21142;-61
2020/12/08 06:39:42;;;;;;;31.60;11.03;;;;;;;-1.90;77.69;98537.43;2139372;83;21297;-61
2020/12/08 06:42:43;;;;;;;31.82;11.30;;;;;;;-1.95;77.61;98543.93;2139510;83;21281;-61
2020/12/08 06:45:44;;;;;;;30.43;11.10;;;;;;;-1.95;77.72;98543.48;2139409;83;21563;-61
2020/12/08 06:48:45;;;;;;;30.97;10.53;;;;;;;-1.90;77.83;98541.28;2139557;83;21277;-61
2020/12/08 06:51:47;;;;;;;30.60;11.25;;;;;;;-1.90;77.79;98527.14;2139421;83;21755;-61
2020/12/08 06:54:48;;;;;;;31.07;11.12;;;;;;;-1.89;77.61;98522.42;2139689;83;21293;-61
2020/12/08 06:57:49;;;;;;;29.37;11.17;;;;;;;-1.87;77.70;98520.66;2139558;83;21131;-61
2020/12/08 07:00:51;;;;;;;29.45;10.88;;;;;;;-1.87;77.42;98520.66;2139406;83;22101;-61
2020/12/08 07:03:52;;;;;;;31.30;10.67;;;;;;;-1.78;77.53;98539.79;2139696;83;21300;-61
2020/12/08 07:06:54;;;;;;;32.03;12.50;;;;;;;-1.78;77.18;98541.08;2140133;83;21289;-61
2020/12/08 07:09:55;;;;;;;31.12;11.12;;;;;;;-1.75;77.28;98547.48;2139476;83;21608;-61
2020/12/08 07:12:57;;;;;;;30.97;10.95;;;;;;;-1.72;77.16;98542.70;2139459;83;21292;-61
2020/12/08 07:15:58;;;;;;;26.50;10.25;;;;;;;-1.70;77.12;98539.24;2139455;83;21158;-61
2020/12/08 07:18:59;;;;;;;29.18;10.28;;;;;;;-1.68;76.93;98541.78;2139662;83;21741;-61
2020/12/08 07:22:00;;;;;;;26.70;10.20;;;;;;;-1.67;76.82;98540.92;2139571;83;21293;-61
2020/12/08 07:25:02;;;;;;;29.52;10.78;;;;;;;-1.62;76.89;98553.28;2139433;83;21628;-61
2020/12/08 07:28:03;;;;;;;28.35;10.03;;;;;;;-1.56;76.78;98560.89;2139406;83;21155;-61
2020/12/08 07:31:04;;;;;;;28.27;11.05;;;;;;;-1.52;76.56;98562.55;2139988;83;21107;-61
2020/12/08 07:34:06;;;;;;;33.90;13.13;;;;;;;-1.50;76.64;98562.52;2139480;83;21586;-61
2020/12/08 07:37:07;;;;;;;31.60;11.53;;;;;;;-1.50;76.49;98559.50;2140102;83;21289;-61
2020/12/08 07:40:09;;;;;;;29.72;11.83;;;;;;;-1.48;76.19;98559.47;2139495;83;21167;-61
2020/12/08 07:43:10;;;;;;;36.10;13.50;;;;;;;-1.45;76.59;98562.86;2139503;83;21721;-61
2020/12/08 07:46:11;;;;;;;34.90;14.37;;;;;;;-1.38;76.08;98566.16;2139680;83;21123;-61
2020/12/08 07:49:12;;;;;;;37.60;14.43;;;;;;;-1.35;76.17;98557.12;2139602;83;21267;-61
2020/12/08 07:52:14;;;;;;;30.88;11.50;;;;;;;-1.30;76.10;98562.19;2139412;83;21313;-61
2020/12/08 07:55:15;;;;;;;30.85;10.63;;;;;;;-1.27;76.17;98569.84;2139893;83;21293;-61
2020/12/08 07:58:17;;;;;;;36.33;12.82;;;;;;;-1.24;75.59;98569.34;2113013;83;21713;-61
2020/12/08 08:01:18;;;;;;;36.42;12.95;;;;;;;-1.20;75.83;98572.72;2139423;83;21297;-61
2020/12/08 08:04:20;;;;;;;35.28;11.85;;;;;;;-1.15;76.07;98586.80;2139733;83;21697;-61
2020/12/08 08:07:21;;;;;;;32.17;11.18;;;;;;;-1.11;75.66;98586.70;2139523;83;21720;-61
2020/12/08 08:10:22;;;;;;;31.12;11.57;;;;;;;-1.07;75.33;98582.38;2139461;83;21570;-61
2020/12/08 08:13:24;;;;;;;29.60;11.12;;;;;;;-1.01;75.80;98583.98;2139476;83;21146;-61
2020/12/08 08:16:26;;;;;;;36.80;12.60;;;;;;;-0.98;74.77;98573.18;2139598;83;21265;-61
2020/12/08 08:19:28;;;;;;;35.03;11.95;;;;;;;-0.95;75.60;98584.73;2119638;83;21292;-61
2020/12/08 08:22:30;;;;;;;30.37;11.33;;;;;;;-0.90;75.60;98580.33;2121883;83;21142;-61
2020/12/08 08:25:31;;;;;;;29.77;11.50;;;;;;;-0.83;75.69;98582.37;2148972;83;21585;-61
2020/12/08 08:28:33;;;;;;;32.98;14.07;;;;;;;-0.76;75.43;98568.50;2149117;83;21272;-61
2020/12/08 08:31:34;;;;;;;28.47;9.83;;;;;;;-0.79;74.99;98561.25;2148999;83;21292;-61
2020/12/08 08:34:35;;;;;;;31.35;10.85;;;;;;;-0.79;74.65;98546.66;2148878;83;21301;-61
2020/12/08 08:37:37;;;;;;;30.33;11.50;;;;;;;-0.74;75.44;98566.72;2149493;83;21562;-61
2020/12/08 08:40:38;;;;;;;31.33;12.58;;;;;;;-0.71;74.47;98558.09;2148931;83;21134;-61
2020/12/08 08:43:39;;;;;;;31.97;11.10;;;;;;;-0.67;75.23;98567.91;2149033;83;21174;-61
2020/12/08 08:46:40;;;;;;;29.55;11.45;;;;;;;-0.60;74.50;98563.89;2148714;83;21288;-61
2020/12/08 08:49:42;;;;;;;29.02;10.80;;;;;;;-0.56;75.17;98563.37;2121673;83;21288;-61
2020/12/08 08:52:46;;;;;;;30.77;11.70;;;;;;;-0.54;74.76;98576.64;2148868;83;21284;-61
2020/12/08 08:55:47;;;;;;;31.15;11.22;;;;;;;-0.51;74.60;98574.90;2148831;83;21312;-61
2020/12/08 08:58:51;;;;;;;31.35;11.20;;;;;;;-0.54;74.82;98580.95;2149321;83;21142;-61
2020/12/08 09:01:54;;;;;;;29.65;11.90;;;;;;;-0.53;74.69;98589.94;2148844;83;21284;-60
2020/12/08 09:04:56;;;;;;;34.70;12.40;;;;;;;-0.50;74.72;98581.72;2148667;83;21721;-61
2020/12/08 09:07:58;;;;;;;30.65;12.28;;;;;;;-0.49;74.87;98578.28;2148942;83;21284;-61
2020/12/08 09:10:59;;;;;;;31.05;12.13;;;;;;;-0.50;74.58;98569.70;2148844;83;21277;-61
2020/12/08 09:14:01;;;;;;;31.40;12.10;;;;;;;-0.41;74.80;98576.41;2148782;83;21331;-61
2020/12/08 09:17:02;;;;;;;30.57;12.07;;;;;;;-0.41;74.42;98577.69;2148797;83;21150;-61
2020/12/08 09:20:05;;;;;;;32.78;12.63;;;;;;;-0.41;74.46;98580.27;2140607;83;21586;-62
2020/12/08 09:23:06;;;;;;;32.33;12.80;;;;;;;-0.39;74.49;98590.09;2139644;83;21729;-61
2020/12/08 09:26:07;;;;;;;33.83;12.55;;;;;;;-0.37;74.80;98590.92;2139457;83;21174;-61
2020/12/08 09:29:09;;;;;;;32.83;12.33;;;;;;;-0.25;74.68;98596.27;2140102;83;21712;-61
2020/12/08 09:32:10;;;;;;;35.43;13.45;;;;;;;-0.20;74.55;98589.30;2112604;83;21604;-61
2020/12/08 09:35:12;;;;;;;33.65;13.13;;;;;;;-0.16;74.35;98583.16;2139587;83;21272;-61
2020/12/08 09:38:13;;;;;;;33.23;13.22;;;;;;;-0.08;74.59;98586.44;2139311;83;21161;-61
2020/12/08 09:41:14;;;;;;;44.23;17.30;;;;;;;0.05;74.21;98580.56;2112720;83;21289;-61
2020/12/08 09:44:15;;;;;;;33.67;12.80;;;;;;;0.07;73.34;98585.27;2139285;83;21187;-61
2020/12/08 09:47:17;;;;;;;32.35;13.05;;;;;;;0.05;73.52;98588.30;2139275;83;21131;-61
2020/12/08 09:50:20;;;;;;;31.67;12.43;;;;;;;0.13;73.98;98594.15;2139619;83;21614;-61
2020/12/08 09:53:22;;;;;;;33.02;13.40;;;;;;;0.19;72.93;98591.00;2139458;83;21111;-61
2020/12/08 09:56:23;;;;;;;35.05;14.05;;;;;;;0.25;73.89;98596.05;2139325;83;21587;-61
2020/12/08 09:59:25;;;;;;;33.02;13.25;;;;;;;0.37;73.43;98594.45;2139481;83;21159;-61
2020/12/08 10:02:28;;;;;;;33.07;13.77;;;;;;;0.47;73.12;98602.38;2139798;83;21294;-61
2020/12/08 10:05:30;;;;;;;34.23;13.60;;;;;;;0.58;72.52;98601.31;2139202;83;21139;-61
2020/12/08 10:08:32;;;;;;;34.75;13.75;;;;;;;0.61;72.39;98602.52;2139614;83;21265;-61
2020/12/08 10:11:33;;;;;;;33.77;13.87;;;;;;;0.61;72.19;98592.19;2139670;83;21627;-61
2020/12/08 10:14:34;;;;;;;37.40;14.20;;;;;;;0.66;72.62;98588.62;2139632;83;21162;-61
2020/12/08 10:17:37;;;;;;;35.48;14.20;;;;;;;0.69;72.54;98583.37;2139463;83;21139;-61
2020/12/08 10:20:38;;;;;;;;;;;;;;;0.74;72.07;98589.70;2141953;83;21822;-61
2020/12/08 10:23:39;;;;;;;34.90;14.05;;;;;;;0.69;71.94;98583.37;2139745;83;20139;-61
2020/12/08 10:26:41;;;;;;;34.75;13.38;;;;;;;0.70;72.25;98599.70;2139440;83;21158;-61
2020/12/08 10:29:42;;;;;;;34.80;14.70;;;;;;;0.76;72.42;98593.12;2139350;83;21721;-61
2020/12/08 10:32:43;;;;;;;35.75;13.90;;;;;;;0.89;72.77;98603.12;2139846;83;21276;-61
2020/12/08 10:35:44;;;;;;;33.45;14.35;;;;;;;0.89;71.84;98587.20;2139386;83;21166;-61
2020/12/08 10:38:47;;;;;;;36.68;14.58;;;;;;;0.95;71.69;98581.00;2139813;83;21288;-61
2020/12/08 10:41:48;;;;;;;37.95;15.58;;;;;;;0.93;71.21;98582.79;2139360;83;21758;-61
2020/12/08 10:44:49;;;;;;;37.05;14.58;;;;;;;1.03;71.87;98585.53;2139428;83;21174;-61
2020/12/08 10:47:50;;;;;;;50.28;19.20;;;;;;;1.13;70.87;98578.39;2139344;83;21277;-61
2020/12/08 10:50:51;;;;;;;40.38;17.25;;;;;;;1.21;71.06;98588.92;2139721;83;21265;-61
2020/12/08 10:53:52;;;;;;;36.33;15.68;;;;;;;1.44;71.27;98582.71;2112558;83;21278;-61
2020/12/08 10:56:54;;;;;;;36.08;14.53;;;;;;;1.68;71.57;98582.05;2139410;83;21599;-62
2020/12/08 10:59:57;;;;;;;39.10;15.03;;;;;;;1.84;69.53;98576.41;2140038;83;21323;-61
2020/12/08 11:02:58;;;;;;;38.00;16.52;;;;;;;1.92;70.06;98567.14;2139265;83;21147;-61
2020/12/08 11:06:00;;;;;;;37.13;14.87;;;;;;;2.00;70.69;98576.36;2139670;83;21582;-61
2020/12/08 11:09:02;;;;;;;35.35;14.78;;;;;;;2.18;69.76;98575.40;2139568;83;21151;-61
2020/12/08 11:12:03;;;;;;;33.85;14.18;;;;;;;2.22;69.83;98573.95;2139642;83;21138;-62
2020/12/08 11:15:06;;;;;;;33.60;15.05;;;;;;;2.13;68.60;98563.06;2139707;83;21127;-62
2020/12/08 11:18:07;;;;;;;34.58;14.98;;;;;;;2.02;69.90;98576.31;2139625;83;21280;-62
2020/12/08 11:21:08;;;;;;;34.65;14.78;;;;;;;1.97;68.89;98572.58;2139509;83;21198;-62
2020/12/08 11:24:11;;;;;;;36.58;15.30;;;;;;;1.96;69.58;98567.00;2139204;83;21166;-61
2020/12/08 11:27:12;;;;;;;;;;;;;;;2.02;69.89;98563.38;2142137;83;21155;-61
2020/12/08 11:30:13;;;;;;;36.00;15.38;;;;;;;2.02;69.46;98562.92;2139404;83;20227;-62
2020/12/08 11:33:15;;;;;;;38.63;17.07;;;;;;;2.05;69.73;98569.75;2139274;83;21162;-62
2020/12/08 11:36:16;;;;;;;35.90;15.55;;;;;;;2.18;69.29;98583.16;2139224;83;21598;-61
2020/12/08 11:39:17;;;;;;;35.55;15.98;;;;;;;2.34;69.65;98586.12;2139375;83;21713;-61
2020/12/08 11:42:18;;;;;;;36.63;14.78;;;;;;;2.39;68.80;98578.61;2139736;83;21292;-61
2020/12/08 11:45:20;;;;;;;37.08;15.10;;;;;;;2.45;67.74;98579.32;2139739;83;21296;-62
2020/12/08 11:48:22;;;;;;;38.85;16.55;;;;;;;2.45;69.14;98590.52;2139515;83;21277;-62
2020/12/08 11:51:26;;;;;;;36.88;16.30;;;;;;;2.56;68.19;98588.89;2139480;83;21127;-62
2020/12/08 11:54:27;;;;;;;36.15;15.43;;;;;;;2.72;69.25;98569.35;2139434;83;21154;-62
2020/12/08 11:57:28;;;;;;;37.75;15.40;;;;;;;2.84;68.38;98567.25;2139499;83;21158;-62
2020/12/08 12:00:29;;;;;;;37.50;16.40;;;;;;;2.83;68.26;98572.89;2139633;83;21641;-62
2020/12/08 12:03:30;;;;;;;35.75;15.00;;;;;;;2.92;68.02;98561.37;2139321;83;21151;-61
2020/12/08 12:06:32;;;;;;;36.58;15.60;;;;;;;2.92;67.56;98561.37;2139698;83;21276;-61
2020/12/08 12:09:33;;;;;;;33.95;15.68;;;;;;;2.98;68.64;98578.45;2139693;83;21175;-61
2020/12/08 12:12:34;;;;;;;35.05;15.25;;;;;;;3.04;67.21;98570.00;2112812;83;21736;-61
2020/12/08 12:15:35;;;;;;;35.92;15.30;;;;;;;3.05;67.40;98557.91;2139551;83;21729;-62
2020/12/08 12:18:36;;;;;;;51.02;20.30;;;;;;;3.03;67.56;98559.27;2139504;83;21329;-62
2020/12/08 12:21:38;;;;;;;42.62;17.20;;;;;;;2.98;66.83;98550.79;2139929;83;21285;-62
2020/12/08 12:24:39;;;;;;;37.73;16.90;;;;;;;2.87;67.08;98552.89;2139497;83;21768;-62
2020/12/08 12:27:40;;;;;;;36.98;15.88;;;;;;;2.81;67.33;98552.66;2139416;83;21179;-61
2020/12/08 12:30:41;;;;;;;37.20;15.38;;;;;;;2.83;68.04;98546.98;2139433;83;21150;-61
2020/12/08 12:33:42;;;;;;;38.13;16.50;;;;;;;2.83;67.51;98551.30;2139475;83;21705;-61
2020/12/08 12:36:44;;;;;;;35.52;16.20;;;;;;;2.77;67.74;98562.72;2112673;83;21590;-62
2020/12/08 12:39:45;;;;;;;38.53;15.93;;;;;;;2.83;66.78;98577.20;2139924;83;21289;-62
2020/12/08 12:42:46;;;;;;;37.45;15.95;;;;;;;2.80;67.10;98566.49;2139387;83;21633;-62
2020/12/08 12:45:47;;;;;;;39.98;17.12;;;;;;;2.76;67.14;98565.77;2139420;83;21138;-61
2020/12/08 12:48:49;;;;;;;43.05;16.93;;;;;;;2.76;66.96;98576.13;2139895;83;21329;-62
2020/12/08 12:51:51;;;;;;;34.60;14.80;;;;;;;2.73;67.61;98586.59;2139533;83;21154;-61
2020/12/08 12:54:53;;;;;;;36.53;15.45;;;;;;;2.66;66.36;98577.77;2139936;83;21272;-61
2020/12/08 12:57:55;;;;;;;37.35;16.20;;;;;;;2.60;68.10;98578.38;2139425;83;21131;-61
2020/12/08 13:00:56;;;;;;;37.93;16.90;;;;;;;2.61;67.85;98581.80;2139511;83;21285;-61
2020/12/08 13:03:57;;;;;;;36.33;16.60;;;;;;;2.60;68.00;98577.52;2139312;83;21167;-62
2020/12/08 13:06:59;;;;;;;40.12;17.70;;;;;;;2.58;68.22;98586.62;2139656;83;21732;-62
2020/12/08 13:10:00;;;;;;;38.75;15.63;;;;;;;2.57;68.16;98591.86;2139462;83;21622;-62
2020/12/08 13:13:02;;;;;;;45.00;19.98;;;;;;;2.48;67.89;98589.12;2139689;83;21550;-61
2020/12/08 13:16:03;;;;;;;36.23;16.32;;;;;;;2.39;68.09;98587.67;2139999;83;21285;-62
2020/12/08 13:19:04;;;;;;;36.30;16.32;;;;;;;2.31;68.02;98587.52;2137540;83;21334;-61
2020/12/08 13:22:06;;;;;;;39.85;17.17;;;;;;;2.23;68.21;98589.89;2122669;84;21733;-62
2020/12/08 13:25:07;;;;;;;40.52;16.65;;;;;;;2.23;68.73;98599.41;2122532;84;21611;-61
2020/12/08 13:28:08;;;;;;;39.83;16.75;;;;;;;2.22;68.90;98601.13;2123017;84;21211;-61
2020/12/08 13:31:10;;;;;;;40.80;17.65;;;;;;;2.27;69.00;98600.14;2102324;84;21269;-61
2020/12/08 13:34:11;;;;;;;40.80;17.73;;;;;;;2.25;68.75;98606.20;2102498;84;21734;-61
2020/12/08 13:37:12;;;;;;;39.60;16.07;;;;;;;2.19;68.49;98597.80;2122680;84;21312;-61
2020/12/08 13:40:14;;;;;;;42.85;16.52;;;;;;;2.09;68.74;98585.59;2122956;84;21265;-62
2020/12/08 13:43:15;;;;;;;39.05;15.75;;;;;;;2.02;68.84;98578.91;2122674;84;21298;-62
2020/12/08 13:46:16;;;;;;;40.50;16.23;;;;;;;1.93;68.98;98589.08;2122563;84;21749;-61
2020/12/08 13:49:17;;;;;;;39.92;16.65;;;;;;;1.79;68.54;98588.64;2123043;84;21116;-61
2020/12/08 13:52:18;;;;;;;39.25;16.73;;;;;;;1.66;69.21;98602.36;2122877;83;21155;-62
2020/12/08 13:55:20;;;;;;;42.43;17.17;;;;;;;1.56;69.27;98597.89;2122808;84;21325;-62